Jules Verne — A8SN2 — position and weather

sailwx.info

Track history (hours):
 
Tides and Currents Weather Stations Pressure Air Temp Water Temp Dewpoint Dewpoint Depression Visibility Wind Speed Wind Dir Waves Ship Positions

Jules Verne

Last reported at 2017-Nov-03 07:37 UTC. Time now 2017-Nov-22 09:15 UTC.
Position N 31°06' E 122°43'.
Warning: this ship's position is 19 days out of date.

Length 261 m; draft 8.4 m.

Type: Cargo ship. MMSI: 636091763.

Date/timePositionNaut miles runAvg speedWind from/ knotsBaromVisibWave heightAir tempDewpointWater temp
2017-Nov-03 07:37N 31°06' E 122°43'1013.7
2017-Nov-03 06:53N 31°06' E 122°32'511.2
2017-Nov-03 06:26N 31°06' E 122°26'613.0
2017-Nov-03 05:56N 31°06' E 122°18'714.5
2017-Nov-03 05:28N 31°10' E 122°12'715.0
2017-Nov-03 05:00N 31°14' E 122°05'815.1
2017-Nov-03 04:29N 31°15' E 121°56'714.9
2017-Nov-03 04:00N 31°17' E 121°48'612.7
2017-Nov-03 03:30N 31°20' E 121°41'2 2.6
2017-Nov-03 02:53N 31°20' E 121°39'0 0.1
2017-Nov-03 02:26N 31°20' E 121°39'0 0.0
2017-Nov-03 01:56N 31°20' E 121°39'0 0.0
2017-Nov-03 01:29N 31°20' E 121°39'0 0.0
2017-Nov-03 00:59N 31°20' E 121°39'0 0.0
2017-Nov-03 00:29N 31°20' E 121°39'0 0.1
2017-Nov-02 23:56N 31°20' E 121°39'0 0.1
2017-Nov-02 23:29N 31°20' E 121°39'0 0.1
2017-Nov-02 22:56N 31°20' E 121°39'0 0.0
2017-Nov-02 22:29N 31°20' E 121°39'0 0.0
2017-Nov-02 21:59N 31°20' E 121°39'0 0.1
2017-Nov-02 21:29N 31°20' E 121°39'0 0.1
2017-Nov-02 20:53N 31°20' E 121°39'0 0.0
2017-Nov-02 20:29N 31°20' E 121°39'0 0.0
2017-Nov-02 19:59N 31°20' E 121°39'0 0.0
2017-Nov-02 19:29N 31°20' E 121°39'0 0.0
2017-Nov-02 18:59N 31°20' E 121°39'0 0.0
2017-Nov-02 18:29N 31°20' E 121°39'0 0.0
2017-Nov-02 17:59N 31°20' E 121°39'0 0.0
2017-Nov-02 17:29N 31°20' E 121°39'0 0.1
2017-Nov-02 16:56N 31°20' E 121°39'0 0.0
2017-Nov-02 16:29N 31°20' E 121°39'0 0.1
2017-Nov-02 15:59N 31°20' E 121°39'0 0.0
2017-Nov-02 15:29N 31°20' E 121°39'0 0.0
2017-Nov-02 14:59N 31°20' E 121°39'0 0.1
2017-Nov-02 14:26N 31°20' E 121°39'0 0.1
2017-Nov-02 13:59N 31°20' E 121°39'0 0.0
2017-Nov-02 13:29N 31°20' E 121°39'0 0.0
2017-Nov-02 12:56N 31°20' E 121°39'0 0.1
2017-Nov-02 12:29N 31°20' E 121°39'0 0.1
2017-Nov-02 11:56N 31°20' E 121°39'0 0.0
2017-Nov-02 11:26N 31°20' E 121°39'0 0.0
2017-Nov-02 10:56N 31°20' E 121°39'0 0.0
2017-Nov-02 10:26N 31°20' E 121°39'0 0.0
2017-Nov-02 09:56N 31°20' E 121°39'0 0.0
2017-Nov-02 09:26N 31°20' E 121°39'0 0.0
2017-Nov-02 08:56N 31°20' E 121°39'0 0.0
2017-Nov-02 08:26N 31°20' E 121°39'0 0.1
2017-Nov-02 08:00N 31°20' E 121°39'0 0.1
2017-Nov-02 07:30N 31°20' E 121°39'2 4.3
2017-Nov-02 07:00N 31°20' E 121°42'4 8.5
2017-Nov-02 06:30N 31°18' E 121°46'5 8.9
2017-Nov-02 06:00N 31°16' E 121°51'5 9.3
2017-Nov-02 05:29N 31°15' E 121°57'610.6
2017-Nov-02 04:55N 31°14' E 122°04'10 8.5
2017-Nov-02 03:48N 31°09' E 122°13'310.0
2017-Nov-02 03:31N 31°08' E 122°16'5 9.0
2017-Nov-02 02:59N 31°06' E 122°21'  
2017-Oct-30 20:19N 31°36' E 123°16'  
Track history (hours):
 
Tides and Currents Weather Stations Pressure Air Temp Water Temp Dewpoint Dewpoint Depression Visibility Wind Speed Wind Dir Waves Ship Positions

Jules Verne

Last reported at 2017-Nov-03 07:37 UTC. Time now 2017-Nov-22 09:15 UTC.
Position N 31°06' E 122°43'.
Warning: this ship's position is 19 days out of date.

Length 261 m; draft 8.4 m.

Type: Cargo ship. MMSI: 636091763.

Date/timePositionNaut miles runAvg speedWind from/ knotsBaromVisibWave heightAir tempDewpointWater temp
2017-Nov-03 07:37N 31°06' E 122°43'1013.7
2017-Nov-03 06:53N 31°06' E 122°32'511.2
2017-Nov-03 06:26N 31°06' E 122°26'613.0
2017-Nov-03 05:56N 31°06' E 122°18'714.5
2017-Nov-03 05:28N 31°10' E 122°12'715.0
2017-Nov-03 05:00N 31°14' E 122°05'815.1
2017-Nov-03 04:29N 31°15' E 121°56'714.9
2017-Nov-03 04:00N 31°17' E 121°48'612.7
2017-Nov-03 03:30N 31°20' E 121°41'2 2.6
2017-Nov-03 02:53N 31°20' E 121°39'0 0.1
2017-Nov-03 02:26N 31°20' E 121°39'0 0.0
2017-Nov-03 01:56N 31°20' E 121°39'0 0.0
2017-Nov-03 01:29N 31°20' E 121°39'0 0.0
2017-Nov-03 00:59N 31°20' E 121°39'0 0.0
2017-Nov-03 00:29N 31°20' E 121°39'0 0.1
2017-Nov-02 23:56N 31°20' E 121°39'0 0.1
2017-Nov-02 23:29N 31°20' E 121°39'0 0.1
2017-Nov-02 22:56N 31°20' E 121°39'0 0.0
2017-Nov-02 22:29N 31°20' E 121°39'0 0.0
2017-Nov-02 21:59N 31°20' E 121°39'0 0.1
2017-Nov-02 21:29N 31°20' E 121°39'0 0.1
2017-Nov-02 20:53N 31°20' E 121°39'0 0.0
2017-Nov-02 20:29N 31°20' E 121°39'0 0.0
2017-Nov-02 19:59N 31°20' E 121°39'0 0.0
2017-Nov-02 19:29N 31°20' E 121°39'0 0.0
2017-Nov-02 18:59N 31°20' E 121°39'0 0.0
2017-Nov-02 18:29N 31°20' E 121°39'0 0.0
2017-Nov-02 17:59N 31°20' E 121°39'0 0.0
2017-Nov-02 17:29N 31°20' E 121°39'0 0.1
2017-Nov-02 16:56N 31°20' E 121°39'0 0.0
2017-Nov-02 16:29N 31°20' E 121°39'0 0.1
2017-Nov-02 15:59N 31°20' E 121°39'0 0.0
2017-Nov-02 15:29N 31°20' E 121°39'0 0.0
2017-Nov-02 14:59N 31°20' E 121°39'0 0.1
2017-Nov-02 14:26N 31°20' E 121°39'0 0.1
2017-Nov-02 13:59N 31°20' E 121°39'0 0.0
2017-Nov-02 13:29N 31°20' E 121°39'0 0.0
2017-Nov-02 12:56N 31°20' E 121°39'0 0.1
2017-Nov-02 12:29N 31°20' E 121°39'0 0.1
2017-Nov-02 11:56N 31°20' E 121°39'0 0.0
2017-Nov-02 11:26N 31°20' E 121°39'0 0.0
2017-Nov-02 10:56N 31°20' E 121°39'0 0.0
2017-Nov-02 10:26N 31°20' E 121°39'0 0.0
2017-Nov-02 09:56N 31°20' E 121°39'0 0.0
2017-Nov-02 09:26N 31°20' E 121°39'0 0.0
2017-Nov-02 08:56N 31°20' E 121°39'0 0.0
2017-Nov-02 08:26N 31°20' E 121°39'0 0.1
2017-Nov-02 08:00N 31°20' E 121°39'0 0.1
2017-Nov-02 07:30N 31°20' E 121°39'2 4.3
2017-Nov-02 07:00N 31°20' E 121°42'4 8.5
2017-Nov-02 06:30N 31°18' E 121°46'5 8.9
2017-Nov-02 06:00N 31°16' E 121°51'5 9.3
2017-Nov-02 05:29N 31°15' E 121°57'610.6
2017-Nov-02 04:55N 31°14' E 122°04'10 8.5
2017-Nov-02 03:48N 31°09' E 122°13'310.0
2017-Nov-02 03:31N 31°08' E 122°16'5 9.0
2017-Nov-02 02:59N 31°06' E 122°21'  
2017-Oct-30 20:19N 31°36' E 123°16'  

Dump ship's entire track history